sensor_id;sensor_type;location;lat;lon;timestamp;pressure;altitude;pressure_sealevel;temperature;humidity
48244;BME280;34053;51.088;6.572;2023-05-19T00:02:16;101944.44;;;14.19;47.33
48244;BME280;34053;51.088;6.572;2023-05-19T00:05:11;101943.00;;;14.05;47.39
48244;BME280;34053;51.088;6.572;2023-05-19T00:08:04;101943.94;;;14.01;46.60
48244;BME280;34053;51.088;6.572;2023-05-19T00:10:57;101940.31;;;14.07;46.71
48244;BME280;34053;51.088;6.572;2023-05-19T00:13:48;101942.06;;;14.08;46.73
48244;BME280;34053;51.088;6.572;2023-05-19T00:16:40;101946.47;;;14.07;47.15
48244;BME280;34053;51.088;6.572;2023-05-19T00:19:32;101947.38;;;14.06;47.71
48244;BME280;34053;51.088;6.572;2023-05-19T00:22:23;101943.25;;;13.93;46.54
48244;BME280;34053;51.088;6.572;2023-05-19T00:25:13;101942.31;;;13.97;46.60
48244;BME280;34053;51.088;6.572;2023-05-19T00:28:04;101941.47;;;13.95;46.78
48244;BME280;34053;51.088;6.572;2023-05-19T00:30:55;101942.34;;;13.94;47.05
48244;BME280;34053;51.088;6.572;2023-05-19T00:33:46;101938.91;;;13.92;47.23
48244;BME280;34053;51.088;6.572;2023-05-19T00:36:36;101929.34;;;13.84;47.42
48244;BME280;34053;51.088;6.572;2023-05-19T00:39:27;101932.75;;;13.91;47.64
48244;BME280;34053;51.088;6.572;2023-05-19T00:42:19;101933.75;;;13.85;47.83
48244;BME280;34053;51.088;6.572;2023-05-19T00:45:10;101938.13;;;13.87;47.12
48244;BME280;34053;51.088;6.572;2023-05-19T00:48:01;101937.22;;;13.88;48.02
48244;BME280;34053;51.088;6.572;2023-05-19T00:50:53;101934.69;;;13.83;47.81
48244;BME280;34053;51.088;6.572;2023-05-19T00:53:45;101933.81;;;13.82;47.65
48244;BME280;34053;51.088;6.572;2023-05-19T00:56:38;101929.44;;;13.81;47.94
48244;BME280;34053;51.088;6.572;2023-05-19T00:59:29;101933.06;;;13.76;47.54
48244;BME280;34053;51.088;6.572;2023-05-19T01:02:20;101933.91;;;13.78;48.28
48244;BME280;34053;51.088;6.572;2023-05-19T01:05:11;101932.22;;;13.75;48.12
48244;BME280;34053;51.088;6.572;2023-05-19T01:08:03;101936.00;;;13.62;48.63
48244;BME280;34053;51.088;6.572;2023-05-19T01:10:54;101927.13;;;13.66;48.02
48244;BME280;34053;51.088;6.572;2023-05-19T01:13:44;101923.75;;;13.59;49.84
48244;BME280;34053;51.088;6.572;2023-05-19T01:16:39;101923.78;;;13.56;48.80
48244;BME280;34053;51.088;6.572;2023-05-19T01:23:11;101917.00;;;13.44;48.86
48244;BME280;34053;51.088;6.572;2023-05-19T01:32:22;101917.09;;;13.41;49.26
48244;BME280;34053;51.088;6.572;2023-05-19T01:35:15;101919.75;;;13.38;49.31
48244;BME280;34053;51.088;6.572;2023-05-19T01:38:08;101914.56;;;13.33;49.25
48244;BME280;34053;51.088;6.572;2023-05-19T01:40:59;101918.22;;;13.26;48.90
48244;BME280;34053;51.088;6.572;2023-05-19T01:43:53;101919.16;;;13.23;49.23
48244;BME280;34053;51.088;6.572;2023-05-19T01:46:44;101914.75;;;13.22;49.34
48244;BME280;34053;51.088;6.572;2023-05-19T01:49:35;101921.81;;;13.20;49.20
48244;BME280;34053;51.088;6.572;2023-05-19T01:52:25;101914.13;;;13.10;49.41
48244;BME280;34053;51.088;6.572;2023-05-19T01:55:17;101927.25;;;13.11;49.16
48244;BME280;34053;51.088;6.572;2023-05-19T02:01:36;101927.44;;;13.02;50.15
48244;BME280;34053;51.088;6.572;2023-05-19T02:04:50;101926.63;;;12.98;49.80
48244;BME280;34053;51.088;6.572;2023-05-19T02:07:57;101925.84;;;12.93;49.83
48244;BME280;34053;51.088;6.572;2023-05-19T02:10:55;101930.25;;;12.91;49.51
48244;BME280;34053;51.088;6.572;2023-05-19T02:13:49;101928.63;;;12.84;50.06
48244;BME280;34053;51.088;6.572;2023-05-19T02:16:44;101938.38;;;12.79;49.37
48244;BME280;34053;51.088;6.572;2023-05-19T02:19:37;101930.63;;;12.69;49.89
48244;BME280;34053;51.088;6.572;2023-05-19T02:22:29;101926.19;;;12.73;49.93
48244;BME280;34053;51.088;6.572;2023-05-19T02:25:20;101925.31;;;12.72;50.07
48244;BME280;34053;51.088;6.572;2023-05-19T02:28:11;101918.47;;;12.60;49.71
48244;BME280;34053;51.088;6.572;2023-05-19T02:31:02;101919.44;;;12.56;50.02
48244;BME280;34053;51.088;6.572;2023-05-19T02:33:54;101924.59;;;12.63;50.24
48244;BME280;34053;51.088;6.572;2023-05-19T02:36:45;101921.22;;;12.54;49.82
48244;BME280;34053;51.088;6.572;2023-05-19T02:39:42;101909.75;;;12.57;50.58
48244;BME280;34053;51.088;6.572;2023-05-19T02:42:33;101908.06;;;12.54;50.00
48244;BME280;34053;51.088;6.572;2023-05-19T02:45:24;101905.38;;;12.57;50.53
48244;BME280;34053;51.088;6.572;2023-05-19T02:48:17;101906.34;;;12.52;50.69
48244;BME280;34053;51.088;6.572;2023-05-19T02:51:08;101896.75;;;12.49;50.47
48244;BME280;34053;51.088;6.572;2023-05-19T02:53:59;101898.59;;;12.42;51.21
48244;BME280;34053;51.088;6.572;2023-05-19T02:56:50;101897.75;;;12.40;51.20
48244;BME280;34053;51.088;6.572;2023-05-19T02:59:41;101899.47;;;12.41;51.47
48244;BME280;34053;51.088;6.572;2023-05-19T03:02:32;101901.28;;;12.39;50.67
48244;BME280;34053;51.088;6.572;2023-05-19T03:05:23;101900.47;;;12.34;51.45
48244;BME280;34053;51.088;6.572;2023-05-19T03:08:14;101902.31;;;12.29;51.30
48244;BME280;34053;51.088;6.572;2023-05-19T03:11:04;101912.84;;;12.27;51.55
48244;BME280;34053;51.088;6.572;2023-05-19T03:13:55;101913.88;;;12.19;51.63
48244;BME280;34053;51.088;6.572;2023-05-19T03:16:46;101912.09;;;12.21;50.90
48244;BME280;34053;51.088;6.572;2023-05-19T03:19:38;101912.13;;;12.18;51.32
48244;BME280;34053;51.088;6.572;2023-05-19T03:22:28;101911.34;;;12.11;51.08
48244;BME280;34053;51.088;6.572;2023-05-19T03:25:19;101905.25;;;12.07;51.05
48244;BME280;34053;51.088;6.572;2023-05-19T03:28:10;101900.88;;;12.08;51.95
48244;BME280;34053;51.088;6.572;2023-05-19T03:31:01;101903.53;;;12.06;51.35
48244;BME280;34053;51.088;6.572;2023-05-19T03:33:51;101904.41;;;12.07;51.11
48244;BME280;34053;51.088;6.572;2023-05-19T03:36:42;101903.63;;;11.95;51.09
48244;BME280;34053;51.088;6.572;2023-05-19T03:39:34;101904.53;;;11.98;52.34
48244;BME280;34053;51.088;6.572;2023-05-19T03:42:25;101904.59;;;11.91;51.74
48244;BME280;34053;51.088;6.572;2023-05-19T03:45:16;101910.69;;;11.93;51.90
48244;BME280;34053;51.088;6.572;2023-05-19T03:48:06;101905.44;;;11.93;52.42
48244;BME280;34053;51.088;6.572;2023-05-19T03:50:57;101904.56;;;11.93;52.68
48244;BME280;34053;51.088;6.572;2023-05-19T03:53:48;101913.34;;;11.90;51.40
48244;BME280;34053;51.088;6.572;2023-05-19T03:56:39;101907.25;;;11.88;52.01
48244;BME280;34053;51.088;6.572;2023-05-19T03:59:32;101905.69;;;11.72;52.62
48244;BME280;34053;51.088;6.572;2023-05-19T04:02:22;101903.91;;;11.77;52.43
48244;BME280;34053;51.088;6.572;2023-05-19T04:05:13;101907.44;;;11.73;52.33
48244;BME280;34053;51.088;6.572;2023-05-19T04:08:04;101910.09;;;11.70;52.56
48244;BME280;34053;51.088;6.572;2023-05-19T04:10:55;101904.91;;;11.67;51.75
48244;BME280;34053;51.088;6.572;2023-05-19T04:13:46;101906.66;;;11.66;52.34
48244;BME280;34053;51.088;6.572;2023-05-19T04:16:37;101905.88;;;11.58;52.72
48244;BME280;34053;51.088;6.572;2023-05-19T04:19:28;101907.66;;;11.57;52.17
48244;BME280;34053;51.088;6.572;2023-05-19T04:22:18;101903.28;;;11.53;52.59
48244;BME280;34053;51.088;6.572;2023-05-19T04:25:09;101898.94;;;11.54;51.94
48244;BME280;34053;51.088;6.572;2023-05-19T04:28:00;101909.44;;;11.54;52.32
48244;BME280;34053;51.088;6.572;2023-05-19T04:30:52;101911.22;;;11.52;52.95
48244;BME280;34053;51.088;6.572;2023-05-19T04:33:43;101902.59;;;11.39;53.73
48244;BME280;34053;51.088;6.572;2023-05-19T04:36:34;101912.31;;;11.33;53.91
48244;BME280;34053;51.088;6.572;2023-05-19T04:39:24;101908.69;;;11.42;53.56
48244;BME280;34053;51.088;6.572;2023-05-19T04:42:15;101912.19;;;11.44;53.00
48244;BME280;34053;51.088;6.572;2023-05-19T04:45:09;101914.84;;;11.43;53.21
48244;BME280;34053;51.088;6.572;2023-05-19T04:48:01;101917.47;;;11.43;52.72
48244;BME280;34053;51.088;6.572;2023-05-19T04:50:53;101920.91;;;11.46;53.06
48244;BME280;34053;51.088;6.572;2023-05-19T04:53:44;101922.75;;;11.40;52.78
48244;BME280;34053;51.088;6.572;2023-05-19T04:56:35;101924.50;;;11.38;53.63
48244;BME280;34053;51.088;6.572;2023-05-19T04:59:26;101919.28;;;11.36;53.18
48244;BME280;34053;51.088;6.572;2023-05-19T05:02:17;101926.41;;;11.26;54.64
48244;BME280;34053;51.088;6.572;2023-05-19T05:05:08;101922.75;;;11.40;54.37
48244;BME280;34053;51.088;6.572;2023-05-19T05:07:59;101917.63;;;11.27;54.42
48244;BME280;34053;51.088;6.572;2023-05-19T05:10:50;101926.25;;;11.39;54.09
48244;BME280;34053;51.088;6.572;2023-05-19T05:13:42;101924.47;;;11.41;54.49
48244;BME280;34053;51.088;6.572;2023-05-19T05:16:33;101924.56;;;11.33;54.50
48244;BME280;34053;51.088;6.572;2023-05-19T05:19:24;101927.09;;;11.42;54.03
48244;BME280;34053;51.088;6.572;2023-05-19T05:22:15;101920.91;;;11.45;54.15
48244;BME280;34053;51.088;6.572;2023-05-19T05:25:06;101916.66;;;11.36;54.59
48244;BME280;34053;51.088;6.572;2023-05-19T05:27:57;101915.72;;;11.42;54.18
48244;BME280;34053;51.088;6.572;2023-05-19T05:30:49;101915.88;;;11.26;55.25
48244;BME280;34053;51.088;6.572;2023-05-19T05:33:41;101924.50;;;11.38;54.20
48244;BME280;34053;51.088;6.572;2023-05-19T05:36:32;101918.41;;;11.36;55.31
48244;BME280;34053;51.088;6.572;2023-05-19T05:39:24;101915.72;;;11.42;55.47
48244;BME280;34053;51.088;6.572;2023-05-19T05:42:16;101920.91;;;11.45;54.31
48244;BME280;34053;51.088;6.572;2023-05-19T05:45:07;101921.94;;;11.34;58.43
48244;BME280;34053;51.088;6.572;2023-05-19T05:47:58;101916.63;;;11.39;56.64
48244;BME280;34053;51.088;6.572;2023-05-19T05:50:49;101915.94;;;11.20;59.46
48244;BME280;34053;51.088;6.572;2023-05-19T05:53:43;101913.16;;;11.36;57.48
48244;BME280;34053;51.088;6.572;2023-05-19T05:56:36;101910.50;;;11.40;57.21
48244;BME280;34053;51.088;6.572;2023-05-19T05:59:26;101897.41;;;11.32;56.61
48244;BME280;34053;51.088;6.572;2023-05-19T06:02:17;101903.72;;;11.16;59.95
48244;BME280;34053;51.088;6.572;2023-05-19T06:05:08;101902.69;;;11.32;57.19
48244;BME280;34053;51.088;6.572;2023-05-19T06:08:02;101904.28;;;11.44;57.75
48244;BME280;34053;51.088;6.572;2023-05-19T06:10:53;101910.47;;;11.42;57.34
48244;BME280;34053;51.088;6.572;2023-05-19T06:13:43;101903.28;;;11.53;56.44
48244;BME280;34053;51.088;6.572;2023-05-19T06:16:34;101904.16;;;11.55;56.35
48244;BME280;34053;51.088;6.572;2023-05-19T06:19:25;101903.19;;;11.62;55.67
48244;BME280;34053;51.088;6.572;2023-05-19T06:22:16;101891.69;;;11.70;55.70
48244;BME280;34053;51.088;6.572;2023-05-19T06:25:07;101900.66;;;11.55;58.25
48244;BME280;34053;51.088;6.572;2023-05-19T06:27:58;101899.53;;;11.76;56.10
48244;BME280;34053;51.088;6.572;2023-05-19T06:30:49;101901.31;;;11.74;56.48
48244;BME280;34053;51.088;6.572;2023-05-19T06:33:39;101897.56;;;11.90;58.49
48244;BME280;34053;51.088;6.572;2023-05-19T06:36:30;101896.97;;;11.71;58.57
48244;BME280;34053;51.088;6.572;2023-05-19T06:39:21;101889.94;;;11.72;58.44
48244;BME280;34053;51.088;6.572;2023-05-19T06:42:12;101904.53;;;11.98;58.15
48244;BME280;34053;51.088;6.572;2023-05-19T06:45:03;101901.91;;;11.93;58.62
48244;BME280;34053;51.088;6.572;2023-05-19T06:47:54;101904.50;;;12.01;58.19
48244;BME280;34053;51.088;6.572;2023-05-19T06:50:47;101907.16;;;11.96;60.67
48244;BME280;34053;51.088;6.572;2023-05-19T06:53:38;101900.91;;;12.05;58.35
48244;BME280;34053;51.088;6.572;2023-05-19T06:56:29;101893.88;;;12.07;59.87
48244;BME280;34053;51.088;6.572;2023-05-19T06:59:20;101904.81;;;12.38;58.23
48244;BME280;34053;51.088;6.572;2023-05-19T07:02:12;101907.34;;;12.44;58.19
48244;BME280;34053;51.088;6.572;2023-05-19T07:05:03;101890.81;;;12.36;59.29
48244;BME280;34053;51.088;6.572;2023-05-19T07:07:54;101903.81;;;12.44;59.81
48244;BME280;34053;51.088;6.572;2023-05-19T07:10:45;101901.91;;;12.55;57.40
48244;BME280;34053;51.088;6.572;2023-05-19T07:13:36;101901.84;;;12.58;57.05
48244;BME280;34053;51.088;6.572;2023-05-19T07:16:27;101900.88;;;12.64;57.12
48244;BME280;34053;51.088;6.572;2023-05-19T07:19:17;101909.53;;;12.71;57.08
48244;BME280;34053;51.088;6.572;2023-05-19T07:22:09;101899.78;;;12.78;57.76
48244;BME280;34053;51.088;6.572;2023-05-19T07:25:00;101893.66;;;12.75;57.93
48244;BME280;34053;51.088;6.572;2023-05-19T07:27:50;101894.44;;;12.82;57.73
48244;BME280;34053;51.088;6.572;2023-05-19T07:30:41;101890.91;;;12.83;57.52
48244;BME280;34053;51.088;6.572;2023-05-19T07:33:32;101890.81;;;12.86;57.83
48244;BME280;34053;51.088;6.572;2023-05-19T07:36:23;101889.09;;;12.85;57.61
48244;BME280;34053;51.088;6.572;2023-05-19T07:39:13;101891.44;;;13.02;57.10
48244;BME280;34053;51.088;6.572;2023-05-19T07:42:04;101887.19;;;12.94;58.76
48244;BME280;34053;51.088;6.572;2023-05-19T07:44:55;101885.41;;;12.96;58.04
48244;BME280;34053;51.088;6.572;2023-05-19T07:47:46;101885.28;;;13.02;58.23
48244;BME280;34053;51.088;6.572;2023-05-19T07:50:37;101880.72;;;13.12;56.03
48244;BME280;34053;51.088;6.572;2023-05-19T07:53:27;101885.81;;;13.21;54.97
48244;BME280;34053;51.088;6.572;2023-05-19T07:56:18;101883.13;;;13.22;54.65
48244;BME280;34053;51.088;6.572;2023-05-19T07:59:09;101869.88;;;13.27;54.63
48244;BME280;34053;51.088;6.572;2023-05-19T08:02:00;101884.78;;;13.28;54.67
48244;BME280;34053;51.088;6.572;2023-05-19T08:04:51;101877.59;;;13.35;53.61
48244;BME280;34053;51.088;6.572;2023-05-19T08:07:42;101877.56;;;13.40;53.98
48244;BME280;34053;51.088;6.572;2023-05-19T08:10:33;101870.25;;;13.52;53.12
48244;BME280;34053;51.088;6.572;2023-05-19T08:13:24;101870.19;;;13.56;53.39
48244;BME280;34053;51.088;6.572;2023-05-19T08:16:15;101877.13;;;13.60;53.90
48244;BME280;34053;51.088;6.572;2023-05-19T08:19:05;101873.22;;;13.79;53.04
48244;BME280;34053;51.088;6.572;2023-05-19T08:21:56;101877.63;;;13.79;52.73
48244;BME280;34053;51.088;6.572;2023-05-19T08:24:50;101862.72;;;13.76;52.82
48244;BME280;34053;51.088;6.572;2023-05-19T08:27:41;101862.50;;;13.85;53.26
48244;BME280;34053;51.088;6.572;2023-05-19T08:30:32;101857.22;;;13.85;53.66
48244;BME280;34053;51.088;6.572;2023-05-19T08:33:22;101857.06;;;13.93;53.59
48244;BME280;34053;51.088;6.572;2023-05-19T08:36:13;101854.19;;;14.04;53.20
48244;BME280;34053;51.088;6.572;2023-05-19T08:39:04;101855.06;;;14.03;52.78
48244;BME280;34053;51.088;6.572;2023-05-19T08:41:56;101848.84;;;14.07;53.23
48244;BME280;34053;51.088;6.572;2023-05-19T08:44:46;101849.47;;;14.17;51.86
48244;BME280;34053;51.088;6.572;2023-05-19T08:47:39;101844.16;;;14.19;52.93
48244;BME280;34053;51.088;6.572;2023-05-19T08:50:34;101837.91;;;14.23;53.13
48244;BME280;34053;51.088;6.572;2023-05-19T08:53:35;101836.78;;;14.33;52.97
48244;BME280;34053;51.088;6.572;2023-05-19T08:56:26;101831.09;;;14.48;52.41
48244;BME280;34053;51.088;6.572;2023-05-19T08:59:18;101827.59;;;14.48;52.86
48244;BME280;34053;51.088;6.572;2023-05-19T09:02:10;101833.16;;;14.72;51.42
48244;BME280;34053;51.088;6.572;2023-05-19T09:05:03;101829.88;;;14.62;51.82
48244;BME280;34053;51.088;6.572;2023-05-19T09:07:54;101831.72;;;14.58;51.20
48244;BME280;34053;51.088;6.572;2023-05-19T09:10:45;101830.66;;;14.66;51.64
48244;BME280;34053;51.088;6.572;2023-05-19T09:13:36;101819.69;;;14.81;51.12
48244;BME280;34053;51.088;6.572;2023-05-19T09:16:27;101817.25;;;14.75;51.77
48244;BME280;34053;51.088;6.572;2023-05-19T09:19:18;101812.44;;;14.89;50.40
48244;BME280;34053;51.088;6.572;2023-05-19T09:22:10;101819.16;;;15.01;48.79
48244;BME280;34053;51.088;6.572;2023-05-19T09:25:01;101816.69;;;14.95;50.13
48244;BME280;34053;51.088;6.572;2023-05-19T09:27:53;101806.59;;;15.09;50.74
48244;BME280;34053;51.088;6.572;2023-05-19T09:30:44;101808.78;;;15.25;49.02
48244;BME280;34053;51.088;6.572;2023-05-19T09:33:39;101800.50;;;15.37;50.07
48244;BME280;34053;51.088;6.572;2023-05-19T09:36:31;101801.31;;;15.39;49.22
48244;BME280;34053;51.088;6.572;2023-05-19T09:39:22;101804.06;;;15.36;49.79
48244;BME280;34053;51.088;6.572;2023-05-19T09:42:14;101790.47;;;15.49;49.28
48244;BME280;34053;51.088;6.572;2023-05-19T09:45:07;101792.78;;;15.60;47.50
48244;BME280;34053;51.088;6.572;2023-05-19T09:48:04;101788.19;;;15.65;47.92
48244;BME280;34053;51.088;6.572;2023-05-19T09:50:55;101782.13;;;15.61;47.54
48244;BME280;34053;51.088;6.572;2023-05-19T09:53:47;101774.75;;;15.72;46.45
48244;BME280;34053;51.088;6.572;2023-05-19T09:56:38;101772.53;;;15.87;47.65
48244;BME280;34053;51.088;6.572;2023-05-19T09:59:30;101766.75;;;16.02;48.21
48244;BME280;34053;51.088;6.572;2023-05-19T10:02:21;101772.03;;;16.02;46.81
48244;BME280;34053;51.088;6.572;2023-05-19T10:05:16;101778.97;;;16.07;47.52
48244;BME280;34053;51.088;6.572;2023-05-19T10:08:10;101771.41;;;16.21;46.92
48244;BME280;34053;51.088;6.572;2023-05-19T10:11:01;101779.66;;;16.39;47.33
48244;BME280;34053;51.088;6.572;2023-05-19T10:13:52;101782.94;;;16.45;46.79
48244;BME280;34053;51.088;6.572;2023-05-19T10:16:44;101779.22;;;16.51;46.03
48244;BME280;34053;51.088;6.572;2023-05-19T10:19:36;101774.13;;;16.45;44.25
48244;BME280;34053;51.088;6.572;2023-05-19T10:22:27;101774.94;;;16.47;44.05
48244;BME280;34053;51.088;6.572;2023-05-19T10:25:18;101775.56;;;16.55;45.42
48244;BME280;34053;51.088;6.572;2023-05-19T10:28:15;101776.25;;;16.60;44.03
48244;BME280;34053;51.088;6.572;2023-05-19T10:31:10;101771.75;;;16.62;43.82
48244;BME280;34053;51.088;6.572;2023-05-19T10:37:17;101775.00;;;16.71;43.29
48244;BME280;34053;51.088;6.572;2023-05-19T10:40:14;101763.47;;;16.72;43.11
48244;BME280;34053;51.088;6.572;2023-05-19T10:43:14;101770.97;;;16.84;44.73
48244;BME280;34053;51.088;6.572;2023-05-19T10:46:09;101760.38;;;16.84;43.33
48244;BME280;34053;51.088;6.572;2023-05-19T10:49:00;101765.56;;;16.87;44.32
48244;BME280;34053;51.088;6.572;2023-05-19T10:51:54;101757.47;;;16.90;43.76
48244;BME280;34053;51.088;6.572;2023-05-19T10:54:46;101767.41;;;17.10;43.56
48244;BME280;34053;51.088;6.572;2023-05-19T10:57:36;101762.13;;;17.09;42.73
48244;BME280;34053;51.088;6.572;2023-05-19T11:00:28;101751.34;;;17.13;41.90
48244;BME280;34053;51.088;6.572;2023-05-19T11:03:20;101742.13;;;17.24;42.46
48244;BME280;34053;51.088;6.572;2023-05-19T11:06:24;101738.22;;;17.33;42.87
48244;BME280;34053;51.088;6.572;2023-05-19T11:09:19;101741.03;;;17.29;42.49
48244;BME280;34053;51.088;6.572;2023-05-19T11:12:11;101736.28;;;17.38;41.94
48244;BME280;34053;51.088;6.572;2023-05-19T11:15:02;101735.69;;;17.74;42.50
48244;BME280;34053;51.088;6.572;2023-05-19T11:17:53;101738.41;;;17.52;41.63
48244;BME280;34053;51.088;6.572;2023-05-19T11:20:54;101743.13;;;17.66;42.39
48244;BME280;34053;51.088;6.572;2023-05-19T11:23:47;101729.66;;;17.70;42.30
48244;BME280;34053;51.088;6.572;2023-05-19T11:26:41;101720.69;;;17.73;41.81
48244;BME280;34053;51.088;6.572;2023-05-19T11:29:32;101723.72;;;17.86;42.46
48244;BME280;34053;51.088;6.572;2023-05-19T11:32:32;101731.03;;;18.03;42.13
48244;BME280;34053;51.088;6.572;2023-05-19T11:35:24;101730.47;;;18.15;41.37
48244;BME280;34053;51.088;6.572;2023-05-19T11:38:17;101733.22;;;18.14;42.38
48244;BME280;34053;51.088;6.572;2023-05-19T11:41:08;101726.09;;;18.35;41.35
48244;BME280;34053;51.088;6.572;2023-05-19T11:43:59;101727.16;;;18.31;41.27
48244;BME280;34053;51.088;6.572;2023-05-19T11:46:50;101719.66;;;18.40;40.31
48244;BME280;34053;51.088;6.572;2023-05-19T11:49:47;101726.81;;;18.59;39.94
48244;BME280;34053;51.088;6.572;2023-05-19T11:52:43;101713.59;;;18.58;41.02
48244;BME280;34053;51.088;6.572;2023-05-19T11:55:34;101716.91;;;18.63;39.95
48244;BME280;34053;51.088;6.572;2023-05-19T11:58:25;101708.66;;;18.69;40.74
48244;BME280;34053;51.088;6.572;2023-05-19T12:01:17;101706.06;;;18.67;38.22
48244;BME280;34053;51.088;6.572;2023-05-19T12:04:09;101702.63;;;18.65;39.97
48244;BME280;34053;51.088;6.572;2023-05-19T12:07:00;101704.16;;;18.50;38.63
48244;BME280;34053;51.088;6.572;2023-05-19T12:09:51;101696.16;;;18.71;39.49
48244;BME280;34053;51.088;6.572;2023-05-19T12:12:42;101693.72;;;18.85;40.71
48244;BME280;34053;51.088;6.572;2023-05-19T12:15:34;101689.75;;;18.96;39.41
48244;BME280;34053;51.088;6.572;2023-05-19T12:18:29;101685.66;;;18.87;40.21
48244;BME280;34053;51.088;6.572;2023-05-19T12:21:22;101682.03;;;19.09;38.89
48244;BME280;34053;51.088;6.572;2023-05-19T12:24:13;101685.91;;;19.21;38.37
48244;BME280;34053;51.088;6.572;2023-05-19T12:27:11;101683.56;;;19.32;39.01
48244;BME280;34053;51.088;6.572;2023-05-19T12:30:03;101680.59;;;19.21;38.36
48244;BME280;34053;51.088;6.572;2023-05-19T12:32:55;101677.94;;;19.21;37.90
48244;BME280;34053;51.088;6.572;2023-05-19T12:35:49;101677.84;;;19.22;38.88
48244;BME280;34053;51.088;6.572;2023-05-19T12:38:42;101672.88;;;19.33;37.90
48244;BME280;34053;51.088;6.572;2023-05-19T12:41:33;101675.28;;;19.75;38.59
48244;BME280;34053;51.088;6.572;2023-05-19T12:44:23;101673.59;;;19.55;36.54
48244;BME280;34053;51.088;6.572;2023-05-19T12:47:16;101672.63;;;19.38;38.27
48244;BME280;34053;51.088;6.572;2023-05-19T12:50:10;101659.81;;;19.64;36.24
48244;BME280;34053;51.088;6.572;2023-05-19T12:53:01;101664.53;;;19.76;37.41
48244;BME280;34053;51.088;6.572;2023-05-19T12:55:52;101664.31;;;19.81;36.64
48244;BME280;34053;51.088;6.572;2023-05-19T12:58:43;101663.91;;;19.54;37.40
48244;BME280;34053;51.088;6.572;2023-05-19T13:01:35;101667.78;;;19.46;37.22
48244;BME280;34053;51.088;6.572;2023-05-19T13:04:27;101662.31;;;19.49;37.86
48244;BME280;34053;51.088;6.572;2023-05-19T13:07:19;101656.13;;;19.84;35.79
48244;BME280;34053;51.088;6.572;2023-05-19T13:18:01;101657.31;;;20.13;36.81
48244;BME280;34053;51.088;6.572;2023-05-19T13:20:53;101657.34;;;19.96;36.55
48244;BME280;34053;51.088;6.572;2023-05-19T13:23:44;101650.13;;;19.98;37.38
48244;BME280;34053;51.088;6.572;2023-05-19T13:26:35;101650.00;;;20.35;34.89
48244;BME280;34053;51.088;6.572;2023-05-19T13:29:26;101644.28;;;20.25;35.64
48244;BME280;34053;51.088;6.572;2023-05-19T13:32:17;101639.97;;;20.40;35.67
48244;BME280;34053;51.088;6.572;2023-05-19T13:35:09;101635.38;;;20.26;36.48
48244;BME280;34053;51.088;6.572;2023-05-19T13:38:10;101632.31;;;20.50;36.21
48244;BME280;34053;51.088;6.572;2023-05-19T13:41:01;101638.03;;;20.26;36.23
48244;BME280;34053;51.088;6.572;2023-05-19T13:43:52;101623.19;;;20.54;36.35
48244;BME280;34053;51.088;6.572;2023-05-19T13:46:43;101621.81;;;20.47;35.17
48244;BME280;34053;51.088;6.572;2023-05-19T13:49:34;101624.34;;;20.66;35.88
48244;BME280;34053;51.088;6.572;2023-05-19T13:52:25;101627.31;;;20.93;36.35
48244;BME280;34053;51.088;6.572;2023-05-19T13:55:16;101624.28;;;20.83;35.59
48244;BME280;34053;51.088;6.572;2023-05-19T13:58:07;101624.47;;;20.80;36.36
48244;BME280;34053;51.088;6.572;2023-05-19T14:01:00;101619.97;;;20.81;35.93
48244;BME280;34053;51.088;6.572;2023-05-19T14:03:54;101619.78;;;21.00;34.97
48244;BME280;34053;51.088;6.572;2023-05-19T14:06:45;101614.28;;;21.19;35.85
48244;BME280;34053;51.088;6.572;2023-05-19T14:09:38;101623.91;;;21.05;34.89
48244;BME280;34053;51.088;6.572;2023-05-19T14:12:29;101610.84;;;21.17;35.24
48244;BME280;34053;51.088;6.572;2023-05-19T14:15:20;101609.34;;;21.27;34.80
48244;BME280;34053;51.088;6.572;2023-05-19T14:18:11;101604.44;;;21.35;34.94
48244;BME280;34053;51.088;6.572;2023-05-19T14:21:02;101606.53;;;21.14;35.72
48244;BME280;34053;51.088;6.572;2023-05-19T14:23:54;101610.41;;;20.92;34.72
48244;BME280;34053;51.088;6.572;2023-05-19T14:26:45;101603.88;;;21.14;34.97
48244;BME280;34053;51.088;6.572;2023-05-19T14:29:38;101600.31;;;21.14;34.01
48244;BME280;34053;51.088;6.572;2023-05-19T14:32:29;101590.91;;;21.53;35.40
48244;BME280;34053;51.088;6.572;2023-05-19T14:35:20;101595.81;;;21.30;33.73
48244;BME280;34053;51.088;6.572;2023-05-19T14:38:13;101601.88;;;21.79;35.06
48244;BME280;34053;51.088;6.572;2023-05-19T14:41:05;101598.06;;;21.83;34.07
48244;BME280;34053;51.088;6.572;2023-05-19T14:43:56;101605.50;;;21.78;35.12
48244;BME280;34053;51.088;6.572;2023-05-19T14:46:49;101594.22;;;21.58;34.61
48244;BME280;34053;51.088;6.572;2023-05-19T14:49:40;101598.28;;;22.09;33.90
48244;BME280;34053;51.088;6.572;2023-05-19T14:52:33;101593.03;;;21.93;32.92
48244;BME280;34053;51.088;6.572;2023-05-19T14:55:24;101592.75;;;22.41;32.80
48244;BME280;34053;51.088;6.572;2023-05-19T14:58:15;101598.81;;;22.72;33.33
48244;BME280;34053;51.088;6.572;2023-05-19T15:01:08;101589.66;;;22.61;32.25
48244;BME280;34053;51.088;6.572;2023-05-19T15:03:59;101587.16;;;22.73;31.23
48244;BME280;34053;51.088;6.572;2023-05-19T15:06:50;101585.88;;;23.20;31.85
48244;BME280;34053;51.088;6.572;2023-05-19T15:09:41;101582.75;;;23.67;31.81
48244;BME280;34053;51.088;6.572;2023-05-19T15:12:32;101572.00;;;23.93;30.05
48244;BME280;34053;51.088;6.572;2023-05-19T15:15:23;101573.75;;;24.07;30.45
48244;BME280;34053;51.088;6.572;2023-05-19T15:18:13;101573.13;;;24.03;30.10
48244;BME280;34053;51.088;6.572;2023-05-19T15:21:08;101569.09;;;24.72;30.00
48244;BME280;34053;51.088;6.572;2023-05-19T15:23:58;101565.50;;;25.08;30.48